METAR AND TAF INFORMATION
METAR FOR KHQM
ADDS - METARS form results

(0435 UTC 28 February 2021)
Data provider http://aviationweather.gov/metar/data/
 
METAR text: KHQM 280422Z AUTO 19006KT 10SM SCT014 OVC022 06/05 A3031 RMK AO2 T00610050
Conditions at: KHQM (HOQUIAM , WA, US) observed 0422 UTC 28 February 2021
Temperature: 6.1°C (43°F)
Dewpoint: 5.0°C (41°F) [RH = 93%]
Pressure (altimeter): 30.31 inches Hg (1026.5 mb)
Winds: from the S (190 degrees) at 7 MPH (6 knots; 3.1 m/s)
Visibility: 10 or more miles (16+ km)
Ceiling: 2200 feet AGL
Clouds: scattered clouds at 1400 feet AGL
overcast cloud deck at 2200 feet AGL
Weather: automated observation with no human augmentation;
there may or may not be significant weather present at this time

METAR text: KHQM 280410Z AUTO 19004KT 10SM BKN014 OVC024 06/04 A3031 RMK AO2 T00610044
Conditions at: KHQM (HOQUIAM , WA, US) observed 0410 UTC 28 February 2021
Temperature: 6.1°C (43°F)
Dewpoint: 4.4°C (40°F) [RH = 89%]
Pressure (altimeter): 30.31 inches Hg (1026.5 mb)
Winds: from the S (190 degrees) at 5 MPH (4 knots; 2.1 m/s)
Visibility: 10 or more miles (16+ km)
Ceiling: 1400 feet AGL
Clouds: broken clouds at 1400 feet AGL
overcast cloud deck at 2400 feet AGL
Weather: automated observation with no human augmentation;
there may or may not be significant weather present at this time

METAR text: KHQM 280353Z AUTO 16004KT 10SM SCT014 OVC029 06/04 A3032 RMK AO2 SLP269 T00560044
Conditions at: KHQM (HOQUIAM , WA, US) observed 0353 UTC 28 February 2021
Temperature: 5.6°C (42°F)
Dewpoint: 4.4°C (40°F) [RH = 92%]
Pressure (altimeter): 30.32 inches Hg (1026.8 mb)
[Sea-level pressure: 1026.9 mb]
Winds: from the SSE (160 degrees) at 5 MPH (4 knots; 2.1 m/s)
Visibility: 10 or more miles (16+ km)
Ceiling: 2900 feet AGL
Clouds: scattered clouds at 1400 feet AGL
overcast cloud deck at 2900 feet AGL
Weather: automated observation with no human augmentation;
there may or may not be significant weather present at this time

Forecast for: KHQM (HOQUIAM , WA, US)
Text: KHQM 280158Z 2802/2824 26009KT 6SM -RA BR OVC025
Forecast period: 0200 to 1200 UTC 28 February 2021
Forecast type: FROM: standard forecast or significant change
Winds: from the W (260 degrees) at 10 MPH (9 knots; 4.6 m/s)
Visibility: 6 miles (10 km)
Ceiling: 2500 feet AGL
Clouds: overcast cloud deck at 2500 feet AGL
Weather: -RA BR  (light rain, mist)
Text: FM281200 20007KT 5SM -RA BR OVC017
Forecast period: 1200 to 1900 UTC 28 February 2021
Forecast type: FROM: standard forecast or significant change
Winds: from the SSW (200 degrees) at 8 MPH (7 knots; 3.6 m/s)
Visibility: 5 miles (8 km)
Ceiling: 1700 feet AGL
Clouds: overcast cloud deck at 1700 feet AGL
Weather: -RA BR  (light rain, mist)
Text: FM281900 17008KT P6SM BKN022 BKN040
Forecast period: 1900 UTC 28 February 2021 to 0000 UTC 01 March 2021
Forecast type: FROM: standard forecast or significant change
Winds: from the S (170 degrees) at 9 MPH (8 knots; 4.1 m/s)
Visibility: 6 or more miles (10+ km)
Ceiling: 2200 feet AGL
Clouds: broken clouds at 2200 feet AGL
broken clouds at 4000 feet AGL
Weather: no significant weather forecast for this period

 AIRPORT MAP

 RUNWAY INFORMATION
Runway 06 Runway length 5000 ft Runway width 150 ft
Runway elevation 18 ft Runway displaced threshold 0 ft Runway heading 80
Runway 24 Runway length 5000 ft Runway width 150 ft
Runway elevation 15 ft Runway displaced threshold 0 ft Runway heading 260

 AIRPORT FREQUENCIES
Type ASOS Name ASOS Frequency 135.775 MHZ
Type CNTR Name SEATTLE CN Frequency 128.3 MHZ
Type RDO Name SEATTLE RD Frequency 122.2 MHZ
Type UNIC Name CTAF/UNICO Frequency 122.7 MHZ

 AIRPORT NEAR NAVIGATION AIDS
Type NDB Name Abern Frequency 236 KHZ
Type VORTAC Name Hoquiam Frequency 117700 KHZ



Powered by Virtual Airlines Manager [v2.6.2]